sensor_id;sensor_type;location;lat;lon;timestamp;temperature;humidity
3690;DHT22;1861;50.240;8.596;2022-07-01T00:01:46;21.30;94.90
3690;DHT22;1861;50.240;8.596;2022-07-01T00:04:15;21.30;94.80
3690;DHT22;1861;50.240;8.596;2022-07-01T00:06:43;21.30;94.90
3690;DHT22;1861;50.240;8.596;2022-07-01T00:09:11;21.40;95.00
3690;DHT22;1861;50.240;8.596;2022-07-01T00:11:39;21.40;95.10
3690;DHT22;1861;50.240;8.596;2022-07-01T00:14:09;21.40;95.30
3690;DHT22;1861;50.240;8.596;2022-07-01T00:16:37;21.40;95.00
3690;DHT22;1861;50.240;8.596;2022-07-01T00:19:05;21.30;95.00
3690;DHT22;1861;50.240;8.596;2022-07-01T00:21:33;21.30;94.90
3690;DHT22;1861;50.240;8.596;2022-07-01T00:24:02;21.40;95.10
3690;DHT22;1861;50.240;8.596;2022-07-01T00:26:30;21.30;94.80
3690;DHT22;1861;50.240;8.596;2022-07-01T00:28:58;21.30;95.00
3690;DHT22;1861;50.240;8.596;2022-07-01T00:31:28;21.20;94.90
3690;DHT22;1861;50.240;8.596;2022-07-01T00:33:56;21.20;95.10
3690;DHT22;1861;50.240;8.596;2022-07-01T00:36:24;21.20;95.10
3690;DHT22;1861;50.240;8.596;2022-07-01T00:38:57;21.30;95.20
3690;DHT22;1861;50.240;8.596;2022-07-01T00:41:25;21.20;95.20
3690;DHT22;1861;50.240;8.596;2022-07-01T00:43:53;21.10;95.20
3690;DHT22;1861;50.240;8.596;2022-07-01T00:46:22;21.20;95.20
3690;DHT22;1861;50.240;8.596;2022-07-01T00:48:55;21.20;95.30
3690;DHT22;1861;50.240;8.596;2022-07-01T00:51:24;21.20;95.30
3690;DHT22;1861;50.240;8.596;2022-07-01T00:53:52;21.10;95.30
3690;DHT22;1861;50.240;8.596;2022-07-01T00:56:20;21.20;95.60
3690;DHT22;1861;50.240;8.596;2022-07-01T00:58:48;21.20;96.00
3690;DHT22;1861;50.240;8.596;2022-07-01T01:01:16;21.10;96.00
3690;DHT22;1861;50.240;8.596;2022-07-01T01:03:45;21.10;96.00
3690;DHT22;1861;50.240;8.596;2022-07-01T01:06:16;21.00;96.30
3690;DHT22;1861;50.240;8.596;2022-07-01T01:08:44;21.00;96.30
3690;DHT22;1861;50.240;8.596;2022-07-01T01:11:13;21.00;96.50
3690;DHT22;1861;50.240;8.596;2022-07-01T01:13:41;21.00;96.80
3690;DHT22;1861;50.240;8.596;2022-07-01T01:16:16;21.00;97.00
3690;DHT22;1861;50.240;8.596;2022-07-01T01:18:44;21.00;97.30
3690;DHT22;1861;50.240;8.596;2022-07-01T01:21:14;21.00;97.50
3690;DHT22;1861;50.240;8.596;2022-07-01T01:23:42;20.90;97.00
3690;DHT22;1861;50.240;8.596;2022-07-01T01:26:18;20.80;97.40
3690;DHT22;1861;50.240;8.596;2022-07-01T01:28:47;20.80;97.60
3690;DHT22;1861;50.240;8.596;2022-07-01T01:31:15;20.80;97.60
3690;DHT22;1861;50.240;8.596;2022-07-01T01:33:45;20.70;97.80
3690;DHT22;1861;50.240;8.596;2022-07-01T01:36:14;20.70;98.20
3690;DHT22;1861;50.240;8.596;2022-07-01T01:38:42;20.80;98.10
3690;DHT22;1861;50.240;8.596;2022-07-01T01:41:11;20.80;98.30
3690;DHT22;1861;50.240;8.596;2022-07-01T01:43:39;20.70;98.30
3690;DHT22;1861;50.240;8.596;2022-07-01T01:46:07;20.80;98.20
3690;DHT22;1861;50.240;8.596;2022-07-01T01:48:35;20.80;98.00
3690;DHT22;1861;50.240;8.596;2022-07-01T01:51:03;20.80;98.00
3690;DHT22;1861;50.240;8.596;2022-07-01T01:53:33;20.80;98.20
3690;DHT22;1861;50.240;8.596;2022-07-01T01:56:01;20.80;98.50
3690;DHT22;1861;50.240;8.596;2022-07-01T01:58:29;20.80;98.70
3690;DHT22;1861;50.240;8.596;2022-07-01T02:00:57;20.80;98.60
3690;DHT22;1861;50.240;8.596;2022-07-01T02:03:25;20.80;98.50
3690;DHT22;1861;50.240;8.596;2022-07-01T02:05:54;20.70;98.30
3690;DHT22;1861;50.240;8.596;2022-07-01T02:08:22;20.70;98.30
3690;DHT22;1861;50.240;8.596;2022-07-01T02:10:51;20.70;98.30
3690;DHT22;1861;50.240;8.596;2022-07-01T02:13:24;20.70;98.20
3690;DHT22;1861;50.240;8.596;2022-07-01T02:15:52;20.60;98.40
3690;DHT22;1861;50.240;8.596;2022-07-01T02:18:20;20.60;98.50
3690;DHT22;1861;50.240;8.596;2022-07-01T02:20:49;20.60;98.70
3690;DHT22;1861;50.240;8.596;2022-07-01T02:23:17;20.60;98.50
3690;DHT22;1861;50.240;8.596;2022-07-01T02:25:45;20.60;98.40
3690;DHT22;1861;50.240;8.596;2022-07-01T02:28:15;20.50;98.20
3690;DHT22;1861;50.240;8.596;2022-07-01T02:30:43;20.50;98.30
3690;DHT22;1861;50.240;8.596;2022-07-01T02:33:11;20.40;97.90
3690;DHT22;1861;50.240;8.596;2022-07-01T02:35:40;20.30;98.40
3690;DHT22;1861;50.240;8.596;2022-07-01T02:38:15;20.30;98.00
3690;DHT22;1861;50.240;8.596;2022-07-01T02:40:43;20.30;97.90
3690;DHT22;1861;50.240;8.596;2022-07-01T02:43:11;20.30;98.00
3690;DHT22;1861;50.240;8.596;2022-07-01T02:45:41;20.30;98.00
3690;DHT22;1861;50.240;8.596;2022-07-01T02:48:09;20.30;97.50
3690;DHT22;1861;50.240;8.596;2022-07-01T02:50:37;20.30;97.90
3690;DHT22;1861;50.240;8.596;2022-07-01T02:53:05;20.30;98.00
3690;DHT22;1861;50.240;8.596;2022-07-01T02:55:33;20.30;98.00
3690;DHT22;1861;50.240;8.596;2022-07-01T02:58:01;20.40;98.10
3690;DHT22;1861;50.240;8.596;2022-07-01T03:00:31;20.30;98.40
3690;DHT22;1861;50.240;8.596;2022-07-01T03:03:00;20.30;98.70
3690;DHT22;1861;50.240;8.596;2022-07-01T03:05:29;20.40;98.30
3690;DHT22;1861;50.240;8.596;2022-07-01T03:07:57;20.40;98.30
3690;DHT22;1861;50.240;8.596;2022-07-01T03:10:25;20.30;98.10
3690;DHT22;1861;50.240;8.596;2022-07-01T03:12:53;20.40;98.30
3690;DHT22;1861;50.240;8.596;2022-07-01T03:15:21;20.40;98.20
3690;DHT22;1861;50.240;8.596;2022-07-01T03:17:49;20.30;98.30
3690;DHT22;1861;50.240;8.596;2022-07-01T03:20:19;20.20;98.40
3690;DHT22;1861;50.240;8.596;2022-07-01T03:22:48;20.10;98.50
3690;DHT22;1861;50.240;8.596;2022-07-01T03:25:17;20.20;98.60
3690;DHT22;1861;50.240;8.596;2022-07-01T03:27:45;20.20;98.80
3690;DHT22;1861;50.240;8.596;2022-07-01T03:30:15;20.20;98.40
3690;DHT22;1861;50.240;8.596;2022-07-01T03:32:45;20.20;98.30
3690;DHT22;1861;50.240;8.596;2022-07-01T03:35:13;20.20;98.40
3690;DHT22;1861;50.240;8.596;2022-07-01T03:38:00;20.20;98.30
3690;DHT22;1861;50.240;8.596;2022-07-01T03:40:28;20.20;98.30
3690;DHT22;1861;50.240;8.596;2022-07-01T03:42:57;20.20;98.40
3690;DHT22;1861;50.240;8.596;2022-07-01T03:45:25;20.30;98.40
3690;DHT22;1861;50.240;8.596;2022-07-01T03:47:53;20.20;98.20
3690;DHT22;1861;50.240;8.596;2022-07-01T03:50:22;20.30;98.10
3690;DHT22;1861;50.240;8.596;2022-07-01T03:52:51;20.30;97.90
3690;DHT22;1861;50.240;8.596;2022-07-01T03:55:42;20.20;97.80
3690;DHT22;1861;50.240;8.596;2022-07-01T03:58:09;20.30;97.60
3690;DHT22;1861;50.240;8.596;2022-07-01T04:00:38;20.20;97.50
3690;DHT22;1861;50.240;8.596;2022-07-01T04:03:07;20.30;97.50
3690;DHT22;1861;50.240;8.596;2022-07-01T04:05:36;20.30;97.10
3690;DHT22;1861;50.240;8.596;2022-07-01T04:08:06;20.20;97.20
3690;DHT22;1861;50.240;8.596;2022-07-01T04:10:38;20.30;97.20
3690;DHT22;1861;50.240;8.596;2022-07-01T04:13:08;20.20;97.10
3690;DHT22;1861;50.240;8.596;2022-07-01T04:15:57;20.10;97.20
3690;DHT22;1861;50.240;8.596;2022-07-01T04:18:27;20.00;97.00
3690;DHT22;1861;50.240;8.596;2022-07-01T04:20:56;20.00;96.90
3690;DHT22;1861;50.240;8.596;2022-07-01T04:23:41;20.10;97.00
3690;DHT22;1861;50.240;8.596;2022-07-01T04:26:10;20.00;97.00
3690;DHT22;1861;50.240;8.596;2022-07-01T04:28:59;20.00;97.10
3690;DHT22;1861;50.240;8.596;2022-07-01T04:31:27;20.10;97.00
3690;DHT22;1861;50.240;8.596;2022-07-01T04:33:55;20.10;96.90
3690;DHT22;1861;50.240;8.596;2022-07-01T04:36:23;20.10;97.10
3690;DHT22;1861;50.240;8.596;2022-07-01T04:38:52;20.10;97.00
3690;DHT22;1861;50.240;8.596;2022-07-01T04:41:20;20.10;96.80
3690;DHT22;1861;50.240;8.596;2022-07-01T04:44:06;20.10;96.90
3690;DHT22;1861;50.240;8.596;2022-07-01T04:46:35;20.00;97.10
3690;DHT22;1861;50.240;8.596;2022-07-01T04:49:03;20.00;97.00
3690;DHT22;1861;50.240;8.596;2022-07-01T04:51:31;20.00;97.00
3690;DHT22;1861;50.240;8.596;2022-07-01T04:54:02;20.00;96.90
3690;DHT22;1861;50.240;8.596;2022-07-01T04:56:31;20.00;96.80
3690;DHT22;1861;50.240;8.596;2022-07-01T04:59:00;20.00;96.80
3690;DHT22;1861;50.240;8.596;2022-07-01T05:01:30;20.10;97.00
3690;DHT22;1861;50.240;8.596;2022-07-01T05:03:59;20.10;96.70
3690;DHT22;1861;50.240;8.596;2022-07-01T05:06:27;20.20;96.70
3690;DHT22;1861;50.240;8.596;2022-07-01T05:08:55;20.10;96.60
3690;DHT22;1861;50.240;8.596;2022-07-01T05:11:23;20.20;96.60
3690;DHT22;1861;50.240;8.596;2022-07-01T05:13:52;20.10;96.70
3690;DHT22;1861;50.240;8.596;2022-07-01T05:16:20;20.00;96.80
3690;DHT22;1861;50.240;8.596;2022-07-01T05:18:49;19.90;96.60
3690;DHT22;1861;50.240;8.596;2022-07-01T05:21:35;19.90;96.90
3690;DHT22;1861;50.240;8.596;2022-07-01T05:24:21;20.00;96.90
3690;DHT22;1861;50.240;8.596;2022-07-01T05:26:49;20.10;96.80
3690;DHT22;1861;50.240;8.596;2022-07-01T05:29:17;20.00;96.70
3690;DHT22;1861;50.240;8.596;2022-07-01T05:31:45;20.00;96.60
3690;DHT22;1861;50.240;8.596;2022-07-01T05:34:15;20.00;96.50
3690;DHT22;1861;50.240;8.596;2022-07-01T05:36:43;20.00;96.60
3690;DHT22;1861;50.240;8.596;2022-07-01T05:39:11;19.90;96.30
3690;DHT22;1861;50.240;8.596;2022-07-01T05:41:39;19.90;96.00
3690;DHT22;1861;50.240;8.596;2022-07-01T05:44:08;19.90;96.00
3690;DHT22;1861;50.240;8.596;2022-07-01T05:46:36;19.90;95.90
3690;DHT22;1861;50.240;8.596;2022-07-01T05:49:04;19.90;96.10
3690;DHT22;1861;50.240;8.596;2022-07-01T05:51:34;19.90;96.30
3690;DHT22;1861;50.240;8.596;2022-07-01T05:54:02;19.90;95.90
3690;DHT22;1861;50.240;8.596;2022-07-01T05:56:30;20.00;95.70
3690;DHT22;1861;50.240;8.596;2022-07-01T05:58:59;20.00;96.00
3690;DHT22;1861;50.240;8.596;2022-07-01T06:01:27;20.10;96.00
3690;DHT22;1861;50.240;8.596;2022-07-01T06:03:55;20.10;95.50
3690;DHT22;1861;50.240;8.596;2022-07-01T06:06:23;20.20;95.70
3690;DHT22;1861;50.240;8.596;2022-07-01T06:08:53;20.30;95.70
3690;DHT22;1861;50.240;8.596;2022-07-01T06:11:21;20.40;95.90
3690;DHT22;1861;50.240;8.596;2022-07-01T06:13:49;20.40;95.80
3690;DHT22;1861;50.240;8.596;2022-07-01T06:16:17;20.40;95.30
3690;DHT22;1861;50.240;8.596;2022-07-01T06:18:46;20.30;95.00
3690;DHT22;1861;50.240;8.596;2022-07-01T06:21:14;20.30;95.10
3690;DHT22;1861;50.240;8.596;2022-07-01T06:23:42;20.30;95.30
3690;DHT22;1861;50.240;8.596;2022-07-01T06:26:13;20.40;95.20
3690;DHT22;1861;50.240;8.596;2022-07-01T06:28:42;20.30;94.80
3690;DHT22;1861;50.240;8.596;2022-07-01T06:31:10;20.30;94.80
3690;DHT22;1861;50.240;8.596;2022-07-01T06:33:38;20.20;94.60
3690;DHT22;1861;50.240;8.596;2022-07-01T06:36:06;20.30;94.80
3690;DHT22;1861;50.240;8.596;2022-07-01T06:38:34;20.30;94.80
3690;DHT22;1861;50.240;8.596;2022-07-01T06:41:03;20.30;94.90
3690;DHT22;1861;50.240;8.596;2022-07-01T06:43:50;20.30;94.80
3690;DHT22;1861;50.240;8.596;2022-07-01T06:46:18;20.30;94.50
3690;DHT22;1861;50.240;8.596;2022-07-01T06:48:46;20.40;94.60
3690;DHT22;1861;50.240;8.596;2022-07-01T06:51:14;20.40;94.50
3690;DHT22;1861;50.240;8.596;2022-07-01T06:53:43;20.40;94.40
3690;DHT22;1861;50.240;8.596;2022-07-01T06:56:13;20.40;94.40
3690;DHT22;1861;50.240;8.596;2022-07-01T06:58:41;20.40;94.40
3690;DHT22;1861;50.240;8.596;2022-07-01T07:01:11;20.50;94.60
3690;DHT22;1861;50.240;8.596;2022-07-01T07:03:39;20.60;94.70
3690;DHT22;1861;50.240;8.596;2022-07-01T07:06:08;20.50;94.30
3690;DHT22;1861;50.240;8.596;2022-07-01T07:08:36;20.60;94.40
3690;DHT22;1861;50.240;8.596;2022-07-01T07:11:05;20.50;94.30
3690;DHT22;1861;50.240;8.596;2022-07-01T07:13:36;20.50;94.30
3690;DHT22;1861;50.240;8.596;2022-07-01T07:16:04;20.40;94.20
3690;DHT22;1861;50.240;8.596;2022-07-01T07:18:35;20.40;94.20
3690;DHT22;1861;50.240;8.596;2022-07-01T07:21:03;20.40;94.00
3690;DHT22;1861;50.240;8.596;2022-07-01T07:23:31;20.40;94.00
3690;DHT22;1861;50.240;8.596;2022-07-01T07:26:00;20.30;94.00
3690;DHT22;1861;50.240;8.596;2022-07-01T07:28:28;20.30;93.90
3690;DHT22;1861;50.240;8.596;2022-07-01T07:30:56;20.30;93.90
3690;DHT22;1861;50.240;8.596;2022-07-01T07:33:24;20.30;93.80
3690;DHT22;1861;50.240;8.596;2022-07-01T07:35:54;20.30;93.90
3690;DHT22;1861;50.240;8.596;2022-07-01T07:38:22;20.30;93.70
3690;DHT22;1861;50.240;8.596;2022-07-01T07:40:50;20.30;93.70
3690;DHT22;1861;50.240;8.596;2022-07-01T07:43:18;20.30;93.80
3690;DHT22;1861;50.240;8.596;2022-07-01T07:45:46;20.30;93.80
3690;DHT22;1861;50.240;8.596;2022-07-01T07:48:15;20.30;93.80
3690;DHT22;1861;50.240;8.596;2022-07-01T07:50:43;20.30;93.80
3690;DHT22;1861;50.240;8.596;2022-07-01T07:53:15;20.30;93.80
3690;DHT22;1861;50.240;8.596;2022-07-01T07:55:44;20.20;93.70
3690;DHT22;1861;50.240;8.596;2022-07-01T07:58:12;20.30;93.90
3690;DHT22;1861;50.240;8.596;2022-07-01T08:00:41;20.20;93.90
3690;DHT22;1861;50.240;8.596;2022-07-01T08:03:09;20.30;94.00
3690;DHT22;1861;50.240;8.596;2022-07-01T08:05:38;20.30;94.00
3690;DHT22;1861;50.240;8.596;2022-07-01T08:08:06;20.30;94.40
3690;DHT22;1861;50.240;8.596;2022-07-01T08:10:35;20.20;94.70
3690;DHT22;1861;50.240;8.596;2022-07-01T08:13:03;20.20;94.60
3690;DHT22;1861;50.240;8.596;2022-07-01T08:15:33;20.10;94.90
3690;DHT22;1861;50.240;8.596;2022-07-01T08:18:01;20.10;95.30
3690;DHT22;1861;50.240;8.596;2022-07-01T08:20:29;20.00;95.80
3690;DHT22;1861;50.240;8.596;2022-07-01T08:22:57;20.10;95.90
3690;DHT22;1861;50.240;8.596;2022-07-01T08:25:25;20.10;96.10
3690;DHT22;1861;50.240;8.596;2022-07-01T08:28:03;20.00;96.10
3690;DHT22;1861;50.240;8.596;2022-07-01T08:30:32;20.00;96.30
3690;DHT22;1861;50.240;8.596;2022-07-01T08:33:00;20.00;96.40
3690;DHT22;1861;50.240;8.596;2022-07-01T08:35:29;20.00;96.60
3690;DHT22;1861;50.240;8.596;2022-07-01T08:37:57;20.00;96.50
3690;DHT22;1861;50.240;8.596;2022-07-01T08:40:26;20.10;96.30
3690;DHT22;1861;50.240;8.596;2022-07-01T08:42:58;20.10;95.90
3690;DHT22;1861;50.240;8.596;2022-07-01T08:45:29;20.10;95.90
3690;DHT22;1861;50.240;8.596;2022-07-01T08:47:59;20.10;95.90
3690;DHT22;1861;50.240;8.596;2022-07-01T08:50:29;20.10;95.80
3690;DHT22;1861;50.240;8.596;2022-07-01T08:52:58;20.10;96.50
3690;DHT22;1861;50.240;8.596;2022-07-01T08:55:28;20.10;96.70
3690;DHT22;1861;50.240;8.596;2022-07-01T08:57:56;20.20;96.30
3690;DHT22;1861;50.240;8.596;2022-07-01T09:00:32;20.10;96.20
3690;DHT22;1861;50.240;8.596;2022-07-01T09:03:02;20.10;96.30
3690;DHT22;1861;50.240;8.596;2022-07-01T09:05:31;20.10;96.60
3690;DHT22;1861;50.240;8.596;2022-07-01T09:08:01;20.10;96.50
3690;DHT22;1861;50.240;8.596;2022-07-01T09:10:30;20.20;96.50
3690;DHT22;1861;50.240;8.596;2022-07-01T09:13:04;20.20;96.40
3690;DHT22;1861;50.240;8.596;2022-07-01T09:15:36;20.20;96.40
3690;DHT22;1861;50.240;8.596;2022-07-01T09:18:05;20.30;96.30
3690;DHT22;1861;50.240;8.596;2022-07-01T09:20:35;20.30;96.00
3690;DHT22;1861;50.240;8.596;2022-07-01T09:23:06;20.30;95.80
3690;DHT22;1861;50.240;8.596;2022-07-01T09:25:36;20.20;95.40
3690;DHT22;1861;50.240;8.596;2022-07-01T09:28:19;20.30;96.00
3690;DHT22;1861;50.240;8.596;2022-07-01T09:30:50;20.30;95.70
3690;DHT22;1861;50.240;8.596;2022-07-01T09:33:20;20.30;95.70
3690;DHT22;1861;50.240;8.596;2022-07-01T09:35:48;20.30;95.30
3690;DHT22;1861;50.240;8.596;2022-07-01T09:38:19;20.40;95.80
3690;DHT22;1861;50.240;8.596;2022-07-01T09:41:00;20.40;95.60
3690;DHT22;1861;50.240;8.596;2022-07-01T09:43:31;20.30;95.60
3690;DHT22;1861;50.240;8.596;2022-07-01T09:46:02;20.30;95.30
3690;DHT22;1861;50.240;8.596;2022-07-01T09:48:45;20.20;95.20
3690;DHT22;1861;50.240;8.596;2022-07-01T09:51:14;20.30;94.70
3690;DHT22;1861;50.240;8.596;2022-07-01T09:53:43;20.20;94.60
3690;DHT22;1861;50.240;8.596;2022-07-01T09:56:12;20.20;95.10
3690;DHT22;1861;50.240;8.596;2022-07-01T09:58:40;20.20;95.50
3690;DHT22;1861;50.240;8.596;2022-07-01T10:01:13;20.20;95.30
3690;DHT22;1861;50.240;8.596;2022-07-01T10:03:43;20.10;95.30
3690;DHT22;1861;50.240;8.596;2022-07-01T10:06:33;20.10;94.60
3690;DHT22;1861;50.240;8.596;2022-07-01T10:12:18;20.30;95.00
3690;DHT22;1861;50.240;8.596;2022-07-01T10:14:52;20.40;94.90
3690;DHT22;1861;50.240;8.596;2022-07-01T10:17:30;20.40;94.80
3690;DHT22;1861;50.240;8.596;2022-07-01T10:20:08;20.30;94.80
3690;DHT22;1861;50.240;8.596;2022-07-01T10:22:37;20.50;94.90
3690;DHT22;1861;50.240;8.596;2022-07-01T10:25:34;20.50;94.80
3690;DHT22;1861;50.240;8.596;2022-07-01T10:28:19;20.60;94.30
3690;DHT22;1861;50.240;8.596;2022-07-01T10:30:51;20.70;94.30
3690;DHT22;1861;50.240;8.596;2022-07-01T10:33:37;20.80;93.80
3690;DHT22;1861;50.240;8.596;2022-07-01T10:36:15;20.80;93.70
3690;DHT22;1861;50.240;8.596;2022-07-01T10:39:10;20.80;93.70
3690;DHT22;1861;50.240;8.596;2022-07-01T10:41:42;20.80;93.30
3690;DHT22;1861;50.240;8.596;2022-07-01T10:45:00;20.70;93.10
3690;DHT22;1861;50.240;8.596;2022-07-01T10:47:29;20.70;93.40
3690;DHT22;1861;50.240;8.596;2022-07-01T10:50:03;20.70;93.50
3690;DHT22;1861;50.240;8.596;2022-07-01T10:52:32;20.80;93.50
3690;DHT22;1861;50.240;8.596;2022-07-01T10:55:02;20.80;93.50
3690;DHT22;1861;50.240;8.596;2022-07-01T10:57:33;20.80;93.00
3690;DHT22;1861;50.240;8.596;2022-07-01T11:00:27;20.90;92.90
3690;DHT22;1861;50.240;8.596;2022-07-01T11:03:16;21.00;92.70
3690;DHT22;1861;50.240;8.596;2022-07-01T11:05:49;21.00;91.90
3690;DHT22;1861;50.240;8.596;2022-07-01T11:08:18;21.00;91.60
3690;DHT22;1861;50.240;8.596;2022-07-01T11:10:56;21.00;91.90
3690;DHT22;1861;50.240;8.596;2022-07-01T11:13:26;21.10;91.90
3690;DHT22;1861;50.240;8.596;2022-07-01T11:15:55;21.10;91.90
3690;DHT22;1861;50.240;8.596;2022-07-01T11:18:24;21.10;91.90
3690;DHT22;1861;50.240;8.596;2022-07-01T11:21:02;21.10;92.00
3690;DHT22;1861;50.240;8.596;2022-07-01T11:23:31;21.10;91.70
3690;DHT22;1861;50.240;8.596;2022-07-01T11:26:06;21.10;92.10
3690;DHT22;1861;50.240;8.596;2022-07-01T11:28:40;21.00;92.30
3690;DHT22;1861;50.240;8.596;2022-07-01T11:31:08;21.00;91.80
3690;DHT22;1861;50.240;8.596;2022-07-01T11:33:37;20.90;91.40
3690;DHT22;1861;50.240;8.596;2022-07-01T11:36:08;20.80;91.40
3690;DHT22;1861;50.240;8.596;2022-07-01T11:38:54;20.80;91.80
3690;DHT22;1861;50.240;8.596;2022-07-01T11:41:40;21.00;91.90
3690;DHT22;1861;50.240;8.596;2022-07-01T11:44:08;21.10;91.80
3690;DHT22;1861;50.240;8.596;2022-07-01T11:46:36;21.30;91.80
3690;DHT22;1861;50.240;8.596;2022-07-01T11:49:11;21.50;92.00
3690;DHT22;1861;50.240;8.596;2022-07-01T11:51:41;21.60;92.40
3690;DHT22;1861;50.240;8.596;2022-07-01T11:54:19;21.60;92.20
3690;DHT22;1861;50.240;8.596;2022-07-01T11:56:48;21.50;91.70
3690;DHT22;1861;50.240;8.596;2022-07-01T11:59:17;21.50;91.60
3690;DHT22;1861;50.240;8.596;2022-07-01T12:01:52;21.40;91.70
3690;DHT22;1861;50.240;8.596;2022-07-01T12:04:21;21.30;91.30
3690;DHT22;1861;50.240;8.596;2022-07-01T12:06:50;21.20;91.90
3690;DHT22;1861;50.240;8.596;2022-07-01T12:09:19;21.20;91.90
3690;DHT22;1861;50.240;8.596;2022-07-01T12:11:49;21.10;91.70
3690;DHT22;1861;50.240;8.596;2022-07-01T12:14:22;21.10;92.00
3690;DHT22;1861;50.240;8.596;2022-07-01T12:16:52;21.30;92.00
3690;DHT22;1861;50.240;8.596;2022-07-01T12:19:27;21.30;91.80
3690;DHT22;1861;50.240;8.596;2022-07-01T12:21:58;21.30;91.90
3690;DHT22;1861;50.240;8.596;2022-07-01T12:24:26;21.30;92.00
3690;DHT22;1861;50.240;8.596;2022-07-01T12:27:02;21.20;91.80
3690;DHT22;1861;50.240;8.596;2022-07-01T12:29:48;21.20;91.70
3690;DHT22;1861;50.240;8.596;2022-07-01T12:32:18;21.10;91.90
3690;DHT22;1861;50.240;8.596;2022-07-01T12:34:51;21.10;91.90
3690;DHT22;1861;50.240;8.596;2022-07-01T12:37:28;21.10;91.50
3690;DHT22;1861;50.240;8.596;2022-07-01T12:39:58;21.10;91.50
3690;DHT22;1861;50.240;8.596;2022-07-01T12:42:28;21.10;91.30
3690;DHT22;1861;50.240;8.596;2022-07-01T12:44:58;21.10;91.60
3690;DHT22;1861;50.240;8.596;2022-07-01T12:47:28;21.10;91.70
3690;DHT22;1861;50.240;8.596;2022-07-01T12:50:16;21.10;91.70
3690;DHT22;1861;50.240;8.596;2022-07-01T12:52:59;21.20;91.40
3690;DHT22;1861;50.240;8.596;2022-07-01T12:55:28;21.20;91.40
3690;DHT22;1861;50.240;8.596;2022-07-01T12:57:58;21.20;91.40
3690;DHT22;1861;50.240;8.596;2022-07-01T13:00:28;21.40;91.30
3690;DHT22;1861;50.240;8.596;2022-07-01T13:02:58;21.50;91.30
3690;DHT22;1861;50.240;8.596;2022-07-01T13:05:28;21.60;91.40
3690;DHT22;1861;50.240;8.596;2022-07-01T13:07:58;21.70;91.20
3690;DHT22;1861;50.240;8.596;2022-07-01T13:10:26;21.70;91.20
3690;DHT22;1861;50.240;8.596;2022-07-01T13:12:55;21.70;91.40
3690;DHT22;1861;50.240;8.596;2022-07-01T13:15:23;21.70;91.50
3690;DHT22;1861;50.240;8.596;2022-07-01T13:17:52;21.80;91.20
3690;DHT22;1861;50.240;8.596;2022-07-01T13:20:20;21.70;91.30
3690;DHT22;1861;50.240;8.596;2022-07-01T13:22:48;21.80;91.40
3690;DHT22;1861;50.240;8.596;2022-07-01T13:25:18;21.90;91.50
3690;DHT22;1861;50.240;8.596;2022-07-01T13:27:46;21.90;91.40
3690;DHT22;1861;50.240;8.596;2022-07-01T13:30:14;22.00;91.30
3690;DHT22;1861;50.240;8.596;2022-07-01T13:32:43;22.00;91.40
3690;DHT22;1861;50.240;8.596;2022-07-01T13:35:13;22.00;91.50
3690;DHT22;1861;50.240;8.596;2022-07-01T13:37:43;22.10;91.50
3690;DHT22;1861;50.240;8.596;2022-07-01T13:40:12;22.10;91.20
3690;DHT22;1861;50.240;8.596;2022-07-01T13:42:41;22.00;91.30
3690;DHT22;1861;50.240;8.596;2022-07-01T13:45:10;21.90;91.10
3690;DHT22;1861;50.240;8.596;2022-07-01T13:47:38;21.80;90.90
3690;DHT22;1861;50.240;8.596;2022-07-01T13:50:07;21.80;90.80
3690;DHT22;1861;50.240;8.596;2022-07-01T13:52:37;21.80;90.70
3690;DHT22;1861;50.240;8.596;2022-07-01T13:55:12;21.70;90.60
3690;DHT22;1861;50.240;8.596;2022-07-01T13:57:42;21.70;90.80
3690;DHT22;1861;50.240;8.596;2022-07-01T14:00:11;21.70;90.80
3690;DHT22;1861;50.240;8.596;2022-07-01T14:02:39;21.70;90.90
3690;DHT22;1861;50.240;8.596;2022-07-01T14:05:08;21.70;91.00
3690;DHT22;1861;50.240;8.596;2022-07-01T14:07:37;21.70;91.00
3690;DHT22;1861;50.240;8.596;2022-07-01T14:10:06;21.70;90.90
3690;DHT22;1861;50.240;8.596;2022-07-01T14:12:34;21.60;90.80
3690;DHT22;1861;50.240;8.596;2022-07-01T14:15:04;21.60;90.90
3690;DHT22;1861;50.240;8.596;2022-07-01T14:17:33;21.60;90.50
3690;DHT22;1861;50.240;8.596;2022-07-01T14:20:01;21.60;90.60
3690;DHT22;1861;50.240;8.596;2022-07-01T14:22:30;21.50;90.60
3690;DHT22;1861;50.240;8.596;2022-07-01T14:24:59;21.50;90.50
3690;DHT22;1861;50.240;8.596;2022-07-01T14:27:27;21.50;90.60
3690;DHT22;1861;50.240;8.596;2022-07-01T14:29:55;21.50;90.80
3690;DHT22;1861;50.240;8.596;2022-07-01T14:32:25;21.50;90.60
3690;DHT22;1861;50.240;8.596;2022-07-01T14:34:55;21.50;90.80
3690;DHT22;1861;50.240;8.596;2022-07-01T14:37:23;21.40;90.40
3690;DHT22;1861;50.240;8.596;2022-07-01T14:39:52;21.40;90.50
3690;DHT22;1861;50.240;8.596;2022-07-01T14:42:24;21.40;90.40
3690;DHT22;1861;50.240;8.596;2022-07-01T14:44:53;21.40;90.60
3690;DHT22;1861;50.240;8.596;2022-07-01T14:47:21;21.40;90.40
3690;DHT22;1861;50.240;8.596;2022-07-01T14:49:52;21.40;90.70
3690;DHT22;1861;50.240;8.596;2022-07-01T14:52:21;21.40;90.60
3690;DHT22;1861;50.240;8.596;2022-07-01T14:54:51;21.40;90.90
3690;DHT22;1861;50.240;8.596;2022-07-01T14:57:19;21.40;91.00
3690;DHT22;1861;50.240;8.596;2022-07-01T14:59:48;21.30;91.10
3690;DHT22;1861;50.240;8.596;2022-07-01T15:02:16;21.30;91.00
3690;DHT22;1861;50.240;8.596;2022-07-01T15:04:45;21.30;90.70
3690;DHT22;1861;50.240;8.596;2022-07-01T15:07:15;21.30;90.80
3690;DHT22;1861;50.240;8.596;2022-07-01T15:09:43;21.40;91.10
3690;DHT22;1861;50.240;8.596;2022-07-01T15:12:12;21.40;90.90
3690;DHT22;1861;50.240;8.596;2022-07-01T15:14:40;21.30;90.50
3690;DHT22;1861;50.240;8.596;2022-07-01T15:17:09;21.30;90.70
3690;DHT22;1861;50.240;8.596;2022-07-01T15:19:37;21.30;90.70
3690;DHT22;1861;50.240;8.596;2022-07-01T15:22:07;21.30;90.70
3690;DHT22;1861;50.240;8.596;2022-07-01T15:24:38;21.20;90.60
3690;DHT22;1861;50.240;8.596;2022-07-01T15:27:08;21.30;91.00
3690;DHT22;1861;50.240;8.596;2022-07-01T15:29:37;21.30;91.20
3690;DHT22;1861;50.240;8.596;2022-07-01T15:32:06;21.30;91.30
3690;DHT22;1861;50.240;8.596;2022-07-01T15:34:34;21.30;91.40
3690;DHT22;1861;50.240;8.596;2022-07-01T15:37:03;21.30;91.40
3690;DHT22;1861;50.240;8.596;2022-07-01T15:39:32;21.30;92.20
3690;DHT22;1861;50.240;8.596;2022-07-01T15:42:03;21.20;92.90
3690;DHT22;1861;50.240;8.596;2022-07-01T15:44:31;21.20;93.60
3690;DHT22;1861;50.240;8.596;2022-07-01T15:47:00;21.30;94.50
3690;DHT22;1861;50.240;8.596;2022-07-01T15:49:49;21.30;95.00
3690;DHT22;1861;50.240;8.596;2022-07-01T15:52:17;21.20;95.50
3690;DHT22;1861;50.240;8.596;2022-07-01T15:54:45;21.20;96.00
3690;DHT22;1861;50.240;8.596;2022-07-01T15:57:15;21.20;96.50
3690;DHT22;1861;50.240;8.596;2022-07-01T15:59:43;21.20;96.70
3690;DHT22;1861;50.240;8.596;2022-07-01T16:02:12;21.20;97.00
3690;DHT22;1861;50.240;8.596;2022-07-01T16:04:45;21.20;97.50
3690;DHT22;1861;50.240;8.596;2022-07-01T16:07:14;21.20;97.80
3690;DHT22;1861;50.240;8.596;2022-07-01T16:09:48;21.30;97.90
3690;DHT22;1861;50.240;8.596;2022-07-01T16:12:22;21.30;98.00
3690;DHT22;1861;50.240;8.596;2022-07-01T16:14:52;21.30;98.20
3690;DHT22;1861;50.240;8.596;2022-07-01T16:17:23;21.30;98.50
3690;DHT22;1861;50.240;8.596;2022-07-01T16:19:52;21.30;98.60
3690;DHT22;1861;50.240;8.596;2022-07-01T16:22:23;21.30;98.70
3690;DHT22;1861;50.240;8.596;2022-07-01T16:24:52;21.30;98.80
3690;DHT22;1861;50.240;8.596;2022-07-01T16:27:22;21.30;98.80